sensor_id;sensor_type;location;lat;lon;timestamp;temperature;humidity
33476;DHT22;19814;48.224;11.422;2023-04-16T00:02:18;6.60;99.90
33476;DHT22;19814;48.224;11.422;2023-04-16T00:04:43;6.50;99.90
33476;DHT22;19814;48.224;11.422;2023-04-16T00:07:09;6.50;99.90
33476;DHT22;19814;48.224;11.422;2023-04-16T00:09:34;6.50;99.90
33476;DHT22;19814;48.224;11.422;2023-04-16T00:12:00;6.50;99.90
33476;DHT22;19814;48.224;11.422;2023-04-16T00:14:26;6.60;99.90
33476;DHT22;19814;48.224;11.422;2023-04-16T00:16:51;6.50;99.90
33476;DHT22;19814;48.224;11.422;2023-04-16T00:19:17;6.50;99.90
33476;DHT22;19814;48.224;11.422;2023-04-16T00:21:42;6.60;99.90
33476;DHT22;19814;48.224;11.422;2023-04-16T00:24:08;6.50;99.90
33476;DHT22;19814;48.224;11.422;2023-04-16T00:26:33;6.50;99.90
33476;DHT22;19814;48.224;11.422;2023-04-16T00:28:59;6.50;99.90
33476;DHT22;19814;48.224;11.422;2023-04-16T00:31:29;6.50;99.90
33476;DHT22;19814;48.224;11.422;2023-04-16T00:33:55;6.50;99.90
33476;DHT22;19814;48.224;11.422;2023-04-16T00:36:25;6.50;99.90
33476;DHT22;19814;48.224;11.422;2023-04-16T00:38:52;6.50;99.90
33476;DHT22;19814;48.224;11.422;2023-04-16T00:41:18;6.50;99.90
33476;DHT22;19814;48.224;11.422;2023-04-16T00:43:43;6.60;99.90
33476;DHT22;19814;48.224;11.422;2023-04-16T00:46:09;6.50;99.90
33476;DHT22;19814;48.224;11.422;2023-04-16T00:48:37;6.60;99.90
33476;DHT22;19814;48.224;11.422;2023-04-16T00:51:04;6.60;99.90
33476;DHT22;19814;48.224;11.422;2023-04-16T00:53:30;6.60;99.90
33476;DHT22;19814;48.224;11.422;2023-04-16T00:55:56;6.60;99.90
33476;DHT22;19814;48.224;11.422;2023-04-16T00:58:23;6.60;99.90
33476;DHT22;19814;48.224;11.422;2023-04-16T01:00:50;6.60;99.90
33476;DHT22;19814;48.224;11.422;2023-04-16T01:03:16;6.70;99.90
33476;DHT22;19814;48.224;11.422;2023-04-16T01:05:42;6.70;99.90
33476;DHT22;19814;48.224;11.422;2023-04-16T01:08:17;6.70;99.90
33476;DHT22;19814;48.224;11.422;2023-04-16T01:10:43;6.70;99.90
33476;DHT22;19814;48.224;11.422;2023-04-16T01:13:09;6.70;99.90
33476;DHT22;19814;48.224;11.422;2023-04-16T01:15:35;6.70;99.90
33476;DHT22;19814;48.224;11.422;2023-04-16T01:18:01;6.70;99.90
33476;DHT22;19814;48.224;11.422;2023-04-16T01:20:26;6.70;99.90
33476;DHT22;19814;48.224;11.422;2023-04-16T01:22:52;6.70;99.90
33476;DHT22;19814;48.224;11.422;2023-04-16T01:25:17;6.70;99.90
33476;DHT22;19814;48.224;11.422;2023-04-16T01:27:43;6.80;99.90
33476;DHT22;19814;48.224;11.422;2023-04-16T01:30:08;6.70;99.90
33476;DHT22;19814;48.224;11.422;2023-04-16T01:32:34;6.70;99.90
33476;DHT22;19814;48.224;11.422;2023-04-16T01:35:00;6.70;99.90
33476;DHT22;19814;48.224;11.422;2023-04-16T01:37:25;6.70;99.90
33476;DHT22;19814;48.224;11.422;2023-04-16T01:39:51;6.70;99.90
33476;DHT22;19814;48.224;11.422;2023-04-16T01:42:16;6.70;99.90
33476;DHT22;19814;48.224;11.422;2023-04-16T01:44:42;6.70;99.90
33476;DHT22;19814;48.224;11.422;2023-04-16T01:47:07;6.80;99.90
33476;DHT22;19814;48.224;11.422;2023-04-16T01:49:33;6.70;99.90
33476;DHT22;19814;48.224;11.422;2023-04-16T01:51:59;6.80;99.90
33476;DHT22;19814;48.224;11.422;2023-04-16T01:54:25;6.80;99.90
33476;DHT22;19814;48.224;11.422;2023-04-16T01:56:50;6.80;99.90
33476;DHT22;19814;48.224;11.422;2023-04-16T01:59:16;6.80;99.90
33476;DHT22;19814;48.224;11.422;2023-04-16T02:01:41;6.80;99.90
33476;DHT22;19814;48.224;11.422;2023-04-16T02:04:07;6.70;99.90
33476;DHT22;19814;48.224;11.422;2023-04-16T02:06:33;6.80;99.90
33476;DHT22;19814;48.224;11.422;2023-04-16T02:08:59;6.80;99.90
33476;DHT22;19814;48.224;11.422;2023-04-16T02:11:24;6.80;99.90
33476;DHT22;19814;48.224;11.422;2023-04-16T02:13:50;6.80;99.90
33476;DHT22;19814;48.224;11.422;2023-04-16T02:16:16;6.70;99.90
33476;DHT22;19814;48.224;11.422;2023-04-16T02:18:41;6.70;99.90
33476;DHT22;19814;48.224;11.422;2023-04-16T02:21:07;6.70;99.90
33476;DHT22;19814;48.224;11.422;2023-04-16T02:23:32;6.70;99.90
33476;DHT22;19814;48.224;11.422;2023-04-16T02:25:58;6.70;99.90
33476;DHT22;19814;48.224;11.422;2023-04-16T02:28:23;6.70;99.90
33476;DHT22;19814;48.224;11.422;2023-04-16T02:30:49;6.70;99.90
33476;DHT22;19814;48.224;11.422;2023-04-16T02:33:15;6.70;99.90
33476;DHT22;19814;48.224;11.422;2023-04-16T02:35:40;6.80;99.90
33476;DHT22;19814;48.224;11.422;2023-04-16T02:38:06;6.80;99.90
33476;DHT22;19814;48.224;11.422;2023-04-16T02:40:32;6.80;99.90
33476;DHT22;19814;48.224;11.422;2023-04-16T02:42:57;6.80;99.90
33476;DHT22;19814;48.224;11.422;2023-04-16T02:45:23;6.80;99.90
33476;DHT22;19814;48.224;11.422;2023-04-16T02:47:49;6.80;99.90
33476;DHT22;19814;48.224;11.422;2023-04-16T02:50:15;6.80;99.90
33476;DHT22;19814;48.224;11.422;2023-04-16T02:52:41;6.80;99.90
33476;DHT22;19814;48.224;11.422;2023-04-16T02:55:07;6.80;99.90
33476;DHT22;19814;48.224;11.422;2023-04-16T02:57:33;6.80;99.90
33476;DHT22;19814;48.224;11.422;2023-04-16T02:59:59;6.80;99.90
33476;DHT22;19814;48.224;11.422;2023-04-16T03:02:24;6.80;99.90
33476;DHT22;19814;48.224;11.422;2023-04-16T03:04:52;6.80;99.90
33476;DHT22;19814;48.224;11.422;2023-04-16T03:07:17;6.80;99.90
33476;DHT22;19814;48.224;11.422;2023-04-16T03:09:43;6.80;99.90
33476;DHT22;19814;48.224;11.422;2023-04-16T03:12:08;6.80;99.90
33476;DHT22;19814;48.224;11.422;2023-04-16T03:14:34;6.80;99.90
33476;DHT22;19814;48.224;11.422;2023-04-16T03:17:00;6.80;99.90
33476;DHT22;19814;48.224;11.422;2023-04-16T03:19:26;6.90;99.90
33476;DHT22;19814;48.224;11.422;2023-04-16T03:21:51;6.80;99.90
33476;DHT22;19814;48.224;11.422;2023-04-16T03:24:17;6.80;99.90
33476;DHT22;19814;48.224;11.422;2023-04-16T03:26:42;6.70;99.90
33476;DHT22;19814;48.224;11.422;2023-04-16T03:29:08;6.80;99.90
33476;DHT22;19814;48.224;11.422;2023-04-16T03:31:33;6.70;99.90
33476;DHT22;19814;48.224;11.422;2023-04-16T03:33:59;6.80;99.90
33476;DHT22;19814;48.224;11.422;2023-04-16T03:36:24;6.80;99.90
33476;DHT22;19814;48.224;11.422;2023-04-16T03:38:51;6.80;99.90
33476;DHT22;19814;48.224;11.422;2023-04-16T03:41:17;6.80;99.90
33476;DHT22;19814;48.224;11.422;2023-04-16T03:43:42;6.70;99.90
33476;DHT22;19814;48.224;11.422;2023-04-16T03:46:08;6.70;99.90
33476;DHT22;19814;48.224;11.422;2023-04-16T03:48:33;6.70;99.90
33476;DHT22;19814;48.224;11.422;2023-04-16T03:50:59;6.70;99.90
33476;DHT22;19814;48.224;11.422;2023-04-16T03:53:25;6.70;99.90
33476;DHT22;19814;48.224;11.422;2023-04-16T03:55:51;6.60;99.90
33476;DHT22;19814;48.224;11.422;2023-04-16T03:58:17;6.60;99.90
33476;DHT22;19814;48.224;11.422;2023-04-16T04:00:43;6.60;99.90
33476;DHT22;19814;48.224;11.422;2023-04-16T04:03:09;6.60;99.90
33476;DHT22;19814;48.224;11.422;2023-04-16T04:05:39;6.60;99.90
33476;DHT22;19814;48.224;11.422;2023-04-16T04:08:05;6.60;99.90
33476;DHT22;19814;48.224;11.422;2023-04-16T04:10:32;6.60;99.90
33476;DHT22;19814;48.224;11.422;2023-04-16T04:12:58;6.60;99.90
33476;DHT22;19814;48.224;11.422;2023-04-16T04:15:24;6.60;99.90
33476;DHT22;19814;48.224;11.422;2023-04-16T04:17:49;6.60;99.90
33476;DHT22;19814;48.224;11.422;2023-04-16T04:20:15;6.50;99.90
33476;DHT22;19814;48.224;11.422;2023-04-16T04:22:40;6.50;99.90
33476;DHT22;19814;48.224;11.422;2023-04-16T04:25:08;6.50;99.90
33476;DHT22;19814;48.224;11.422;2023-04-16T04:27:34;6.50;99.90
33476;DHT22;19814;48.224;11.422;2023-04-16T04:29:59;6.50;99.90
33476;DHT22;19814;48.224;11.422;2023-04-16T04:32:25;6.40;99.90
33476;DHT22;19814;48.224;11.422;2023-04-16T04:34:50;6.50;99.90
33476;DHT22;19814;48.224;11.422;2023-04-16T04:37:16;6.50;99.90
33476;DHT22;19814;48.224;11.422;2023-04-16T04:39:41;6.50;99.90
33476;DHT22;19814;48.224;11.422;2023-04-16T04:42:07;6.50;99.90
33476;DHT22;19814;48.224;11.422;2023-04-16T04:44:33;6.50;99.90
33476;DHT22;19814;48.224;11.422;2023-04-16T04:46:59;6.50;99.90
33476;DHT22;19814;48.224;11.422;2023-04-16T04:49:24;6.50;99.90
33476;DHT22;19814;48.224;11.422;2023-04-16T04:51:50;6.50;99.90
33476;DHT22;19814;48.224;11.422;2023-04-16T04:54:15;6.50;99.90
33476;DHT22;19814;48.224;11.422;2023-04-16T04:56:41;6.50;99.90
33476;DHT22;19814;48.224;11.422;2023-04-16T04:59:09;6.50;99.90
33476;DHT22;19814;48.224;11.422;2023-04-16T05:01:35;6.50;99.90
33476;DHT22;19814;48.224;11.422;2023-04-16T05:04:01;6.50;99.90
33476;DHT22;19814;48.224;11.422;2023-04-16T05:06:26;6.50;99.90
33476;DHT22;19814;48.224;11.422;2023-04-16T05:08:52;6.50;99.90
33476;DHT22;19814;48.224;11.422;2023-04-16T05:11:17;6.50;99.90
33476;DHT22;19814;48.224;11.422;2023-04-16T05:13:43;6.50;99.90
33476;DHT22;19814;48.224;11.422;2023-04-16T05:16:08;6.50;99.90
33476;DHT22;19814;48.224;11.422;2023-04-16T05:18:34;6.60;99.90
33476;DHT22;19814;48.224;11.422;2023-04-16T05:20:59;6.60;99.90
33476;DHT22;19814;48.224;11.422;2023-04-16T05:23:25;6.60;99.90
33476;DHT22;19814;48.224;11.422;2023-04-16T05:25:50;6.70;99.90
33476;DHT22;19814;48.224;11.422;2023-04-16T05:28:16;6.70;99.90
33476;DHT22;19814;48.224;11.422;2023-04-16T05:30:41;6.70;99.90
33476;DHT22;19814;48.224;11.422;2023-04-16T05:33:07;6.70;99.90
33476;DHT22;19814;48.224;11.422;2023-04-16T05:35:32;6.80;99.90
33476;DHT22;19814;48.224;11.422;2023-04-16T05:37:59;6.80;99.90
33476;DHT22;19814;48.224;11.422;2023-04-16T05:40:24;6.90;99.90
33476;DHT22;19814;48.224;11.422;2023-04-16T05:42:50;6.90;99.90
33476;DHT22;19814;48.224;11.422;2023-04-16T05:45:16;6.90;99.90
33476;DHT22;19814;48.224;11.422;2023-04-16T05:47:41;7.00;99.90
33476;DHT22;19814;48.224;11.422;2023-04-16T05:50:07;7.10;99.90
33476;DHT22;19814;48.224;11.422;2023-04-16T05:52:32;7.10;99.90
33476;DHT22;19814;48.224;11.422;2023-04-16T05:54:58;7.30;99.90
33476;DHT22;19814;48.224;11.422;2023-04-16T05:57:27;7.30;99.90
33476;DHT22;19814;48.224;11.422;2023-04-16T05:59:52;7.30;99.90
33476;DHT22;19814;48.224;11.422;2023-04-16T06:02:18;7.30;99.90
33476;DHT22;19814;48.224;11.422;2023-04-16T06:04:44;7.40;99.90
33476;DHT22;19814;48.224;11.422;2023-04-16T06:07:10;7.40;99.90
33476;DHT22;19814;48.224;11.422;2023-04-16T06:09:36;7.40;99.90
33476;DHT22;19814;48.224;11.422;2023-04-16T06:12:01;7.40;99.90
33476;DHT22;19814;48.224;11.422;2023-04-16T06:14:27;7.50;99.90
33476;DHT22;19814;48.224;11.422;2023-04-16T06:16:52;7.40;99.90
33476;DHT22;19814;48.224;11.422;2023-04-16T06:19:18;7.20;99.90
33476;DHT22;19814;48.224;11.422;2023-04-16T06:21:43;7.00;99.90
33476;DHT22;19814;48.224;11.422;2023-04-16T06:24:09;7.00;99.90
33476;DHT22;19814;48.224;11.422;2023-04-16T06:26:35;7.00;99.90
33476;DHT22;19814;48.224;11.422;2023-04-16T06:29:00;6.80;99.90
33476;DHT22;19814;48.224;11.422;2023-04-16T06:31:26;6.90;99.90
33476;DHT22;19814;48.224;11.422;2023-04-16T06:33:51;7.00;99.90
33476;DHT22;19814;48.224;11.422;2023-04-16T06:36:17;7.10;99.90
33476;DHT22;19814;48.224;11.422;2023-04-16T06:38:42;7.20;99.90
33476;DHT22;19814;48.224;11.422;2023-04-16T06:41:08;7.20;99.90
33476;DHT22;19814;48.224;11.422;2023-04-16T06:43:34;7.30;99.90
33476;DHT22;19814;48.224;11.422;2023-04-16T06:45:59;7.40;99.90
33476;DHT22;19814;48.224;11.422;2023-04-16T06:48:25;7.50;99.90
33476;DHT22;19814;48.224;11.422;2023-04-16T06:50:51;7.60;99.90
33476;DHT22;19814;48.224;11.422;2023-04-16T06:53:16;7.50;99.90
33476;DHT22;19814;48.224;11.422;2023-04-16T06:55:42;7.40;99.90
33476;DHT22;19814;48.224;11.422;2023-04-16T06:58:08;7.40;99.90
33476;DHT22;19814;48.224;11.422;2023-04-16T07:00:33;7.40;99.90
33476;DHT22;19814;48.224;11.422;2023-04-16T07:03:00;7.30;99.90
33476;DHT22;19814;48.224;11.422;2023-04-16T07:05:25;7.50;99.90
33476;DHT22;19814;48.224;11.422;2023-04-16T07:07:51;7.60;99.90
33476;DHT22;19814;48.224;11.422;2023-04-16T07:10:17;7.80;99.90
33476;DHT22;19814;48.224;11.422;2023-04-16T07:12:42;7.90;99.90
33476;DHT22;19814;48.224;11.422;2023-04-16T07:15:08;7.90;99.90
33476;DHT22;19814;48.224;11.422;2023-04-16T07:17:34;8.00;99.90
33476;DHT22;19814;48.224;11.422;2023-04-16T07:20:00;8.10;99.90
33476;DHT22;19814;48.224;11.422;2023-04-16T07:22:25;8.00;99.90
33476;DHT22;19814;48.224;11.422;2023-04-16T07:24:51;8.00;99.90
33476;DHT22;19814;48.224;11.422;2023-04-16T07:27:16;8.10;99.90
33476;DHT22;19814;48.224;11.422;2023-04-16T07:29:42;8.40;99.90
33476;DHT22;19814;48.224;11.422;2023-04-16T07:32:10;8.60;99.90
33476;DHT22;19814;48.224;11.422;2023-04-16T07:34:36;8.80;99.90
33476;DHT22;19814;48.224;11.422;2023-04-16T07:37:01;8.90;99.90
33476;DHT22;19814;48.224;11.422;2023-04-16T07:39:26;8.70;99.90
33476;DHT22;19814;48.224;11.422;2023-04-16T07:41:52;8.70;99.90
33476;DHT22;19814;48.224;11.422;2023-04-16T07:44:18;8.60;99.90
33476;DHT22;19814;48.224;11.422;2023-04-16T07:46:43;8.70;99.90
33476;DHT22;19814;48.224;11.422;2023-04-16T07:49:09;9.20;99.90
33476;DHT22;19814;48.224;11.422;2023-04-16T07:51:34;9.60;99.90
33476;DHT22;19814;48.224;11.422;2023-04-16T07:54:00;10.00;99.90
33476;DHT22;19814;48.224;11.422;2023-04-16T07:56:25;10.30;99.90
33476;DHT22;19814;48.224;11.422;2023-04-16T07:58:51;10.40;99.90
33476;DHT22;19814;48.224;11.422;2023-04-16T08:01:17;10.10;99.90
33476;DHT22;19814;48.224;11.422;2023-04-16T08:03:42;9.40;99.90
33476;DHT22;19814;48.224;11.422;2023-04-16T08:06:08;9.20;99.90
33476;DHT22;19814;48.224;11.422;2023-04-16T08:08:33;9.10;99.90
33476;DHT22;19814;48.224;11.422;2023-04-16T08:10:59;9.30;99.90
33476;DHT22;19814;48.224;11.422;2023-04-16T08:13:25;9.60;99.90
33476;DHT22;19814;48.224;11.422;2023-04-16T08:15:50;9.60;99.90
33476;DHT22;19814;48.224;11.422;2023-04-16T08:18:16;9.60;99.90
33476;DHT22;19814;48.224;11.422;2023-04-16T08:20:41;9.70;99.90
33476;DHT22;19814;48.224;11.422;2023-04-16T08:23:07;9.90;99.90
33476;DHT22;19814;48.224;11.422;2023-04-16T08:25:34;10.00;99.90
33476;DHT22;19814;48.224;11.422;2023-04-16T08:27:59;9.50;99.90
33476;DHT22;19814;48.224;11.422;2023-04-16T08:30:25;9.60;99.90
33476;DHT22;19814;48.224;11.422;2023-04-16T08:32:51;9.80;99.90
33476;DHT22;19814;48.224;11.422;2023-04-16T08:35:16;9.60;99.90
33476;DHT22;19814;48.224;11.422;2023-04-16T08:37:42;9.50;99.90
33476;DHT22;19814;48.224;11.422;2023-04-16T08:40:08;9.50;99.90
33476;DHT22;19814;48.224;11.422;2023-04-16T08:42:43;9.50;99.90
33476;DHT22;19814;48.224;11.422;2023-04-16T08:45:14;9.60;99.90
33476;DHT22;19814;48.224;11.422;2023-04-16T08:47:40;10.20;99.90
33476;DHT22;19814;48.224;11.422;2023-04-16T08:50:10;10.90;99.90
33476;DHT22;19814;48.224;11.422;2023-04-16T08:52:37;11.40;99.90
33476;DHT22;19814;48.224;11.422;2023-04-16T08:55:12;11.80;99.90
33476;DHT22;19814;48.224;11.422;2023-04-16T08:57:46;11.70;99.90
33476;DHT22;19814;48.224;11.422;2023-04-16T09:00:13;11.90;99.90
33476;DHT22;19814;48.224;11.422;2023-04-16T09:02:38;12.00;99.90
33476;DHT22;19814;48.224;11.422;2023-04-16T09:05:06;12.10;99.90
33476;DHT22;19814;48.224;11.422;2023-04-16T09:07:32;11.50;99.90
33476;DHT22;19814;48.224;11.422;2023-04-16T09:09:59;11.50;99.90
33476;DHT22;19814;48.224;11.422;2023-04-16T09:12:25;11.80;99.90
33476;DHT22;19814;48.224;11.422;2023-04-16T09:14:51;11.00;99.90
33476;DHT22;19814;48.224;11.422;2023-04-16T09:17:17;11.20;99.90
33476;DHT22;19814;48.224;11.422;2023-04-16T09:19:44;11.70;99.90
33476;DHT22;19814;48.224;11.422;2023-04-16T09:22:10;12.10;99.90
33476;DHT22;19814;48.224;11.422;2023-04-16T09:24:36;11.50;99.90
33476;DHT22;19814;48.224;11.422;2023-04-16T09:27:03;11.20;99.90
33476;DHT22;19814;48.224;11.422;2023-04-16T09:29:39;10.90;99.90
33476;DHT22;19814;48.224;11.422;2023-04-16T09:32:09;11.10;99.90
33476;DHT22;19814;48.224;11.422;2023-04-16T09:34:56;11.30;99.90
33476;DHT22;19814;48.224;11.422;2023-04-16T09:37:23;11.40;99.90
33476;DHT22;19814;48.224;11.422;2023-04-16T09:40:03;11.70;99.90
33476;DHT22;19814;48.224;11.422;2023-04-16T09:42:35;11.70;99.90
33476;DHT22;19814;48.224;11.422;2023-04-16T09:45:02;11.50;99.90
33476;DHT22;19814;48.224;11.422;2023-04-16T09:47:44;11.40;99.90
33476;DHT22;19814;48.224;11.422;2023-04-16T09:50:14;11.60;99.90
33476;DHT22;19814;48.224;11.422;2023-04-16T09:52:42;12.10;99.90
33476;DHT22;19814;48.224;11.422;2023-04-16T09:55:07;12.40;99.90
33476;DHT22;19814;48.224;11.422;2023-04-16T09:57:36;12.20;99.90
33476;DHT22;19814;48.224;11.422;2023-04-16T10:00:04;12.20;99.40
33476;DHT22;19814;48.224;11.422;2023-04-16T10:02:30;11.50;99.90
33476;DHT22;19814;48.224;11.422;2023-04-16T10:05:00;11.00;99.90
33476;DHT22;19814;48.224;11.422;2023-04-16T10:07:33;10.90;99.90
33476;DHT22;19814;48.224;11.422;2023-04-16T10:09:59;11.20;99.90
33476;DHT22;19814;48.224;11.422;2023-04-16T10:12:24;11.50;99.90
33476;DHT22;19814;48.224;11.422;2023-04-16T10:14:51;11.50;99.90
33476;DHT22;19814;48.224;11.422;2023-04-16T10:17:17;11.60;99.90
33476;DHT22;19814;48.224;11.422;2023-04-16T10:19:44;11.70;99.90
33476;DHT22;19814;48.224;11.422;2023-04-16T10:22:10;11.80;99.90
33476;DHT22;19814;48.224;11.422;2023-04-16T10:24:36;12.20;99.90
33476;DHT22;19814;48.224;11.422;2023-04-16T10:27:01;12.10;99.90
33476;DHT22;19814;48.224;11.422;2023-04-16T10:29:29;12.40;99.90
33476;DHT22;19814;48.224;11.422;2023-04-16T10:31:55;12.60;99.90
33476;DHT22;19814;48.224;11.422;2023-04-16T10:34:22;12.50;99.40
33476;DHT22;19814;48.224;11.422;2023-04-16T10:36:49;12.40;99.60
33476;DHT22;19814;48.224;11.422;2023-04-16T10:39:19;12.40;99.90
33476;DHT22;19814;48.224;11.422;2023-04-16T10:41:45;12.50;99.90
33476;DHT22;19814;48.224;11.422;2023-04-16T10:44:11;12.40;99.90
33476;DHT22;19814;48.224;11.422;2023-04-16T10:46:42;12.50;99.20
33476;DHT22;19814;48.224;11.422;2023-04-16T10:49:11;12.60;99.20
33476;DHT22;19814;48.224;11.422;2023-04-16T10:51:37;12.40;99.30
33476;DHT22;19814;48.224;11.422;2023-04-16T10:54:24;12.00;99.70
33476;DHT22;19814;48.224;11.422;2023-04-16T10:56:51;11.50;99.90
33476;DHT22;19814;48.224;11.422;2023-04-16T10:59:19;11.60;99.90
33476;DHT22;19814;48.224;11.422;2023-04-16T11:01:47;11.60;99.90
33476;DHT22;19814;48.224;11.422;2023-04-16T11:09:54;11.40;99.90
33476;DHT22;19814;48.224;11.422;2023-04-16T11:15:10;11.80;99.90
33476;DHT22;19814;48.224;11.422;2023-04-16T11:17:43;12.00;99.90
33476;DHT22;19814;48.224;11.422;2023-04-16T11:20:18;12.10;99.90
33476;DHT22;19814;48.224;11.422;2023-04-16T11:22:43;11.90;99.90
33476;DHT22;19814;48.224;11.422;2023-04-16T11:25:12;11.20;99.90
33476;DHT22;19814;48.224;11.422;2023-04-16T11:27:38;10.50;99.90
33476;DHT22;19814;48.224;11.422;2023-04-16T11:30:05;10.30;99.90
33476;DHT22;19814;48.224;11.422;2023-04-16T11:32:32;10.10;99.90
33476;DHT22;19814;48.224;11.422;2023-04-16T11:35:02;10.20;99.90
33476;DHT22;19814;48.224;11.422;2023-04-16T11:37:32;10.40;99.90
33476;DHT22;19814;48.224;11.422;2023-04-16T11:39:59;10.70;99.90
33476;DHT22;19814;48.224;11.422;2023-04-16T11:42:26;10.60;99.90
33476;DHT22;19814;48.224;11.422;2023-04-16T11:44:57;10.30;99.90
33476;DHT22;19814;48.224;11.422;2023-04-16T11:47:25;10.00;99.90
33476;DHT22;19814;48.224;11.422;2023-04-16T11:49:51;9.90;99.90
33476;DHT22;19814;48.224;11.422;2023-04-16T11:52:28;9.90;99.90
33476;DHT22;19814;48.224;11.422;2023-04-16T11:54:54;9.80;99.90
33476;DHT22;19814;48.224;11.422;2023-04-16T11:57:27;9.70;99.90
33476;DHT22;19814;48.224;11.422;2023-04-16T11:59:53;9.70;99.90
33476;DHT22;19814;48.224;11.422;2023-04-16T12:05:06;9.70;99.90
33476;DHT22;19814;48.224;11.422;2023-04-16T12:07:43;9.50;99.90
33476;DHT22;19814;48.224;11.422;2023-04-16T12:10:09;9.50;99.90
33476;DHT22;19814;48.224;11.422;2023-04-16T12:12:35;9.50;99.90
33476;DHT22;19814;48.224;11.422;2023-04-16T12:15:02;9.50;99.90
33476;DHT22;19814;48.224;11.422;2023-04-16T12:17:29;9.60;99.90
33476;DHT22;19814;48.224;11.422;2023-04-16T12:20:00;9.60;99.90
33476;DHT22;19814;48.224;11.422;2023-04-16T12:22:31;9.60;99.90
33476;DHT22;19814;48.224;11.422;2023-04-16T12:25:04;9.40;99.90
33476;DHT22;19814;48.224;11.422;2023-04-16T12:30:08;9.40;99.90
33476;DHT22;19814;48.224;11.422;2023-04-16T12:32:34;9.40;99.90
33476;DHT22;19814;48.224;11.422;2023-04-16T12:34:59;9.40;99.90
33476;DHT22;19814;48.224;11.422;2023-04-16T12:37:25;9.20;99.90
33476;DHT22;19814;48.224;11.422;2023-04-16T12:39:51;9.20;99.90
33476;DHT22;19814;48.224;11.422;2023-04-16T12:42:17;9.10;99.90
33476;DHT22;19814;48.224;11.422;2023-04-16T12:44:42;9.00;99.90
33476;DHT22;19814;48.224;11.422;2023-04-16T12:47:08;8.80;99.90
33476;DHT22;19814;48.224;11.422;2023-04-16T12:49:35;8.70;99.90
33476;DHT22;19814;48.224;11.422;2023-04-16T12:52:01;8.60;99.90
33476;DHT22;19814;48.224;11.422;2023-04-16T12:54:27;8.60;99.90
33476;DHT22;19814;48.224;11.422;2023-04-16T12:56:56;8.60;99.90
33476;DHT22;19814;48.224;11.422;2023-04-16T12:59:22;8.60;99.90
33476;DHT22;19814;48.224;11.422;2023-04-16T13:01:48;8.60;99.90
33476;DHT22;19814;48.224;11.422;2023-04-16T13:04:15;8.50;99.90
33476;DHT22;19814;48.224;11.422;2023-04-16T13:06:43;8.50;99.90
33476;DHT22;19814;48.224;11.422;2023-04-16T13:09:09;8.40;99.90
33476;DHT22;19814;48.224;11.422;2023-04-16T13:11:36;8.50;99.90
33476;DHT22;19814;48.224;11.422;2023-04-16T13:14:01;8.60;99.90
33476;DHT22;19814;48.224;11.422;2023-04-16T13:16:27;8.70;99.90
33476;DHT22;19814;48.224;11.422;2023-04-16T13:18:52;8.70;99.90
33476;DHT22;19814;48.224;11.422;2023-04-16T13:21:18;8.70;99.90
33476;DHT22;19814;48.224;11.422;2023-04-16T13:23:44;8.60;99.90
33476;DHT22;19814;48.224;11.422;2023-04-16T13:26:09;8.50;99.90
33476;DHT22;19814;48.224;11.422;2023-04-16T13:28:37;8.40;99.90
33476;DHT22;19814;48.224;11.422;2023-04-16T13:31:02;8.40;99.90
33476;DHT22;19814;48.224;11.422;2023-04-16T13:33:28;8.40;99.90
33476;DHT22;19814;48.224;11.422;2023-04-16T13:35:54;8.30;99.90
33476;DHT22;19814;48.224;11.422;2023-04-16T13:38:19;8.20;99.90
33476;DHT22;19814;48.224;11.422;2023-04-16T13:40:45;8.10;99.90
33476;DHT22;19814;48.224;11.422;2023-04-16T13:43:11;8.10;99.90
33476;DHT22;19814;48.224;11.422;2023-04-16T13:45:38;8.10;99.90
33476;DHT22;19814;48.224;11.422;2023-04-16T13:48:04;8.10;99.90
33476;DHT22;19814;48.224;11.422;2023-04-16T13:50:29;8.00;99.90
33476;DHT22;19814;48.224;11.422;2023-04-16T13:52:55;8.00;99.90
33476;DHT22;19814;48.224;11.422;2023-04-16T13:55:21;8.10;99.90
33476;DHT22;19814;48.224;11.422;2023-04-16T13:57:47;8.10;99.90
33476;DHT22;19814;48.224;11.422;2023-04-16T14:00:14;8.10;99.90
33476;DHT22;19814;48.224;11.422;2023-04-16T14:02:41;8.20;99.90
33476;DHT22;19814;48.224;11.422;2023-04-16T14:05:07;8.30;99.90
33476;DHT22;19814;48.224;11.422;2023-04-16T14:07:33;8.40;99.90
33476;DHT22;19814;48.224;11.422;2023-04-16T14:09:59;8.50;99.90
33476;DHT22;19814;48.224;11.422;2023-04-16T14:12:26;8.40;99.90
33476;DHT22;19814;48.224;11.422;2023-04-16T14:14:52;8.30;99.90
33476;DHT22;19814;48.224;11.422;2023-04-16T14:17:17;8.20;99.90
33476;DHT22;19814;48.224;11.422;2023-04-16T14:19:43;8.20;99.90
33476;DHT22;19814;48.224;11.422;2023-04-16T14:22:09;8.20;99.90
33476;DHT22;19814;48.224;11.422;2023-04-16T14:24:35;8.20;99.90
33476;DHT22;19814;48.224;11.422;2023-04-16T14:27:01;8.20;99.90
33476;DHT22;19814;48.224;11.422;2023-04-16T14:29:26;8.30;99.90
33476;DHT22;19814;48.224;11.422;2023-04-16T14:31:52;8.40;99.90
33476;DHT22;19814;48.224;11.422;2023-04-16T14:34:17;8.40;99.90
33476;DHT22;19814;48.224;11.422;2023-04-16T14:36:43;8.50;99.90
33476;DHT22;19814;48.224;11.422;2023-04-16T14:39:09;8.70;99.90
33476;DHT22;19814;48.224;11.422;2023-04-16T14:41:35;8.80;99.90
33476;DHT22;19814;48.224;11.422;2023-04-16T14:44:01;8.80;99.90
33476;DHT22;19814;48.224;11.422;2023-04-16T14:46:28;8.80;99.90
33476;DHT22;19814;48.224;11.422;2023-04-16T14:48:54;8.90;99.90
33476;DHT22;19814;48.224;11.422;2023-04-16T14:51:20;8.90;99.90
33476;DHT22;19814;48.224;11.422;2023-04-16T14:53:45;9.00;99.90
33476;DHT22;19814;48.224;11.422;2023-04-16T14:56:11;8.90;99.90
33476;DHT22;19814;48.224;11.422;2023-04-16T14:58:37;8.80;99.90
33476;DHT22;19814;48.224;11.422;2023-04-16T15:01:03;8.80;99.90
33476;DHT22;19814;48.224;11.422;2023-04-16T15:03:29;8.80;99.90
33476;DHT22;19814;48.224;11.422;2023-04-16T15:05:56;8.80;99.90
33476;DHT22;19814;48.224;11.422;2023-04-16T15:08:22;8.80;99.90
33476;DHT22;19814;48.224;11.422;2023-04-16T15:10:47;8.90;99.90
33476;DHT22;19814;48.224;11.422;2023-04-16T15:13:13;8.90;99.90
33476;DHT22;19814;48.224;11.422;2023-04-16T15:15:39;9.00;99.90
33476;DHT22;19814;48.224;11.422;2023-04-16T15:18:04;9.00;99.90
33476;DHT22;19814;48.224;11.422;2023-04-16T15:20:30;8.90;99.90
33476;DHT22;19814;48.224;11.422;2023-04-16T15:22:56;8.90;99.90
33476;DHT22;19814;48.224;11.422;2023-04-16T15:25:21;8.80;99.90
33476;DHT22;19814;48.224;11.422;2023-04-16T15:27:48;8.80;99.90
33476;DHT22;19814;48.224;11.422;2023-04-16T15:30:14;8.80;99.90
33476;DHT22;19814;48.224;11.422;2023-04-16T15:32:40;8.80;99.90
33476;DHT22;19814;48.224;11.422;2023-04-16T15:35:05;8.80;99.90
33476;DHT22;19814;48.224;11.422;2023-04-16T15:37:31;8.90;99.90